Главная страница
METAR-TAF:

METAR-TAF

Аэропорты :

Danbury Municipal Airport

Danbury, Коннектикут, США

широта: 41-22-18N, долгота: 073-29-04W, высота над уровнем моря: 139 м

Текущие метеонаблюдения

Эта сводка был подготовлена 1 час и 5 минут назад, в 09:53 UTC
Ветер 3 Узел от западный-юго-западный
Температура 8°C
Влажность 93%
Давление 1015 hPa
Видимость: 14.5 км
ясное небо

METAR: KDXR 240953Z AUTO 24003KT 9SM CLR 08/07 A2996 RMK AO2 SLP144 T00780067

Время: 06:58 (10:58 UTC)


TAF: отсутствует

Метеонаблюдения и прогнозы для более 4000 аэропортов (сводки METAR и TAF).

Имеющиеся станции представлены на карте желтыми и красными точками.

Чтобы увидеть название станции, наведите на нее мышь.

Затем щелкните, чтобы увидеть метеонаблюдения и метеопрогнозы.

Управление картой: чтобы увеличить масштаб, щелкните зеленые кнопки с черным крестиком; чтобы уменьшить масштаб, щелкните зеленую кнопку с тире; для просмотра соседних карт щелкайте зеленые стрелки.


METAR-TAF: